Time;durP1;ratioP1;P1;durP2;ratioP2;P2;SDS_P1;SDS_P2;PMS_P1;PMS_P2;Temp;Humidity;BMP_temperature;BMP_pressure;BME280_temperature;BME280_humidity;BME280_pressure;Samples;Min_cycle;Max_cycle;Signal;HPM_P1;HPM_P2
2023/02/08 00:01:11;;;;;;;16.65;7.47;;;-2.80;99.90;;;;;;4937356;28;21609;-67
2023/02/08 00:03:38;;;;;;;16.30;7.80;;;-2.80;99.90;;;;;;4954567;28;20071;-73
2023/02/08 00:06:05;;;;;;;20.80;8.52;;;-2.80;99.90;;;;;;4954097;28;20060;-66
2023/02/08 00:08:32;;;;;;;19.65;8.82;;;-2.80;99.90;;;;;;4950911;28;20031;-66
2023/02/08 00:10:58;;;;;;;16.73;7.70;;;-2.80;99.90;;;;;;4955083;28;20292;-68
2023/02/08 00:13:24;;;;;;;16.33;7.43;;;-2.90;99.90;;;;;;4950272;28;20048;-67
2023/02/08 00:15:52;;;;;;;15.90;7.47;;;-2.90;99.90;;;;;;4947453;28;20036;-68
2023/02/08 00:18:18;;;;;;;17.02;7.75;;;-3.00;99.90;;;;;;4951496;28;20029;-67
2023/02/08 00:20:44;;;;;;;17.48;7.88;;;-3.00;99.90;;;;;;4951820;28;20037;-69
2023/02/08 00:23:11;;;;;;;18.95;7.95;;;-3.00;99.90;;;;;;4950630;28;20060;-68
2023/02/08 00:25:36;;;;;;;;;;;-3.10;99.90;;;;;;4953154;28;20053;-67
2023/02/08 00:28:03;;;;;;;15.98;6.97;;;-3.10;99.90;;;;;;4950261;28;20499;-70
2023/02/08 00:30:28;;;;;;;19.75;9.35;;;-3.00;99.90;;;;;;4950900;28;20035;-68
2023/02/08 00:32:54;;;;;;;14.50;7.27;;;-3.10;99.90;;;;;;4951246;28;20147;-68
2023/02/08 00:35:20;;;;;;;21.47;10.03;;;-3.00;99.90;;;;;;4950816;28;20137;-67
2023/02/08 00:37:45;;;;;;;14.73;6.50;;;-3.00;99.90;;;;;;4950831;28;21292;-67
2023/02/08 00:40:12;;;;;;;23.73;9.10;;;-3.00;99.90;;;;;;4949127;28;20939;-71
2023/02/08 00:42:37;;;;;;;17.45;7.70;;;-3.00;99.90;;;;;;4951385;28;20029;-67
2023/02/08 00:45:04;;;;;;;20.13;9.27;;;-3.00;99.90;;;;;;4935025;28;20033;-68
2023/02/08 00:47:29;;;;;;;22.50;9.75;;;-2.90;99.90;;;;;;4948845;28;20079;-66
2023/02/08 00:49:55;;;;;;;19.17;9.73;;;-3.00;99.90;;;;;;4953035;28;20108;-67
2023/02/08 00:52:21;;;;;;;19.37;9.50;;;-3.00;99.90;;;;;;4952152;28;20024;-67
2023/02/08 00:54:47;;;;;;;19.83;9.23;;;-2.90;99.90;;;;;;4951784;28;20024;-67
2023/02/08 00:57:13;;;;;;;19.92;9.00;;;-2.90;99.90;;;;;;4954508;28;20820;-67
2023/02/08 00:59:39;;;;;;;20.58;9.77;;;-2.90;99.90;;;;;;4936761;28;20056;-74
2023/02/08 01:02:05;;;;;;;19.03;9.37;;;-2.90;99.90;;;;;;4954912;28;20025;-67
2023/02/08 01:04:31;;;;;;;21.00;10.25;;;-2.90;99.90;;;;;;4934729;28;21080;-66
2023/02/08 01:06:57;;;;;;;21.67;9.67;;;-2.90;99.90;;;;;;4935243;28;23464;-67
2023/02/08 01:09:23;;;;;;;16.17;8.43;;;-2.90;99.90;;;;;;4952039;28;20021;-67
2023/02/08 01:11:49;;;;;;;24.73;11.27;;;-2.90;99.90;;;;;;4951811;28;23838;-67
2023/02/08 01:14:15;;;;;;;24.20;11.20;;;-2.90;99.90;;;;;;4951273;28;20017;-67
2023/02/08 01:16:41;;;;;;;22.40;11.37;;;-2.80;99.90;;;;;;4954910;28;20450;-67
2023/02/08 01:19:07;;;;;;;24.47;10.93;;;-2.90;99.90;;;;;;4957591;28;20779;-68
2023/02/08 01:21:36;;;;;;;19.10;9.93;;;-3.00;99.90;;;;;;4954773;28;20031;-74
2023/02/08 01:24:03;;;;;;;24.83;11.20;;;-3.20;99.90;;;;;;4953214;28;20071;-68
2023/02/08 01:26:29;;;;;;;23.38;8.80;;;-3.30;99.90;;;;;;4951526;28;20072;-67
2023/02/08 01:28:56;;;;;;;32.53;9.85;;;-3.30;99.90;;;;;;4953594;28;20155;-68
2023/02/08 01:31:28;;;;;;;24.23;11.25;;;-3.30;99.90;;;;;;4952847;28;20875;-67
2023/02/08 01:33:55;;;;;;;24.25;10.73;;;-3.30;99.90;;;;;;4954503;28;20102;-75
2023/02/08 01:36:21;;;;;;;21.30;10.48;;;-3.30;99.90;;;;;;4951504;28;20025;-68
2023/02/08 01:38:47;;;;;;;20.20;9.00;;;-3.20;99.90;;;;;;4957059;28;20082;-67
2023/02/08 01:41:25;;;;;;;20.27;10.52;;;-3.20;99.90;;;;;;4956086;28;23393;-65
2023/02/08 01:44:08;;;;;;;20.02;9.82;;;-3.30;99.90;;;;;;4958734;28;20029;-65
2023/02/08 01:46:36;;;;;;;20.50;9.48;;;-3.30;99.90;;;;;;4957050;28;20215;-73
2023/02/08 01:49:24;;;;;;;20.65;9.27;;;-3.40;99.90;;;;;;4955560;28;20024;-67
2023/02/08 01:52:16;;;;;;;18.42;9.32;;;-3.40;99.90;;;;;;4954052;28;20419;-66
2023/02/08 01:54:49;;;;;;;19.92;10.00;;;-3.50;99.90;;;;;;4958436;28;22186;-65
2023/02/08 01:57:15;;;;;;;18.10;9.15;;;-3.50;99.90;;;;;;4957212;28;20171;-65
2023/02/08 01:59:50;;;;;;;15.70;8.18;;;-3.50;99.90;;;;;;4955249;28;20098;-65
2023/02/08 02:02:18;;;;;;;22.45;9.48;;;-3.50;99.90;;;;;;4956972;28;20029;-64
2023/02/08 02:04:44;;;;;;;25.85;10.05;;;-3.50;99.90;;;;;;4955245;28;20426;-69
2023/02/08 02:07:11;;;;;;;18.58;9.45;;;-3.50;99.90;;;;;;4957135;28;20071;-73
2023/02/08 02:09:39;;;;;;;;;;;-3.50;99.90;;;;;;4956481;28;20109;-71
2023/02/08 02:12:07;;;;;;;21.20;10.52;;;-3.50;99.90;;;;;;4958852;28;19912;-66
2023/02/08 02:14:34;;;;;;;24.67;10.30;;;-3.50;99.90;;;;;;4958732;28;20081;-66
2023/02/08 02:17:00;;;;;;;30.65;11.68;;;-3.60;99.90;;;;;;4954849;28;20031;-73
2023/02/08 02:19:39;;;;;;;20.48;9.80;;;-3.50;99.90;;;;;;4954972;28;20028;-66
2023/02/08 02:22:50;;;;;;;22.27;10.38;;;-3.40;99.90;;;;;;4955815;28;20025;-66
2023/02/08 02:25:30;;;;;;;20.65;10.35;;;-3.40;99.90;;;;;;4955376;28;20048;-66
2023/02/08 02:28:13;;;;;;;23.05;10.85;;;-3.40;99.90;;;;;;4954499;28;23524;-65
2023/02/08 02:30:58;;;;;;;20.95;9.68;;;-3.40;99.90;;;;;;4937224;28;22201;-72
2023/02/08 02:33:31;;;;;;;21.88;9.55;;;-3.40;99.90;;;;;;4954359;28;20102;-67
2023/02/08 02:36:22;;;;;;;23.33;10.45;;;-3.30;99.90;;;;;;4956006;28;20090;-66
2023/02/08 02:39:11;;;;;;;27.10;11.35;;;-3.30;99.90;;;;;;4955588;28;20449;-65
2023/02/08 02:45:09;;;;;;;23.13;10.02;;;-3.20;99.90;;;;;;4955258;28;20082;-65
2023/02/08 02:47:57;;;;;;;20.20;10.02;;;-3.30;99.90;;;;;;4943052;28;20052;-65
2023/02/08 02:50:55;;;;;;;22.77;11.18;;;-3.20;99.90;;;;;;4955038;28;23327;-65
2023/02/08 02:53:27;;;;;;;22.77;10.60;;;-3.20;99.90;;;;;;4953495;28;20035;-66
2023/02/08 02:56:03;;;;;;;30.05;10.55;;;-3.10;99.90;;;;;;4957470;28;20127;-65
2023/02/08 02:58:30;;;;;;;16.10;7.83;;;-3.10;99.90;;;;;;4955410;28;20017;-66
2023/02/08 03:00:58;;;;;;;21.40;10.52;;;-3.00;99.90;;;;;;4956667;28;20327;-65
2023/02/08 03:03:30;;;;;;;23.02;10.23;;;-3.20;99.90;;;;;;4951385;28;23616;-66
2023/02/08 03:06:21;;;;;;;17.85;8.70;;;-3.40;99.90;;;;;;4957720;28;20060;-66
2023/02/08 03:09:18;;;;;;;18.85;8.55;;;-3.50;99.90;;;;;;4957769;28;20071;-65
2023/02/08 03:12:03;;;;;;;16.92;8.32;;;-3.60;99.90;;;;;;4953674;28;20029;-73
2023/02/08 03:14:52;;;;;;;18.88;8.63;;;-3.60;99.90;;;;;;4958435;28;21906;-68
2023/02/08 03:17:46;;;;;;;17.08;8.50;;;-3.70;99.90;;;;;;4954772;28;20029;-72
2023/02/08 03:20:21;;;;;;;17.77;8.65;;;-3.70;99.90;;;;;;4956450;28;20035;-65
2023/02/08 03:23:41;;;;;;;20.03;9.60;;;-3.60;99.90;;;;;;4954861;28;20021;-66
2023/02/08 03:26:15;;;;;;;20.17;9.57;;;-3.60;99.90;;;;;;4874996;28;20292;-66
2023/02/08 03:29:04;;;;;;;19.63;9.23;;;-3.60;99.90;;;;;;4943784;28;20037;-66
2023/02/08 03:31:39;;;;;;;18.02;8.77;;;-3.50;99.90;;;;;;4953900;28;20055;-68
2023/02/08 03:34:06;;;;;;;21.02;8.98;;;-3.50;99.90;;;;;;4957156;28;20025;-66
2023/02/08 03:36:37;;;;;;;;;;;-3.50;99.90;;;;;;4957407;28;20020;-66
2023/02/08 03:39:09;;;;;;;22.73;9.27;;;-3.50;99.90;;;;;;4955878;28;23834;-73
2023/02/08 03:41:39;;;;;;;19.50;9.68;;;-3.50;99.90;;;;;;4939809;28;21215;-66
2023/02/08 03:44:13;;;;;;;19.42;9.43;;;-3.50;99.90;;;;;;4955572;28;20109;-67
2023/02/08 03:46:49;;;;;;;18.27;9.73;;;-3.50;99.90;;;;;;4960154;28;20075;-72
2023/02/08 03:49:20;;;;;;;19.97;9.70;;;-3.50;99.90;;;;;;4954128;28;20082;-65
2023/02/08 03:51:46;;;;;;;22.55;10.02;;;-3.50;99.90;;;;;;4954849;28;20265;-65
2023/02/08 03:54:19;;;;;;;24.77;10.48;;;-3.50;99.90;;;;;;4959168;28;20020;-66
2023/02/08 03:57:01;;;;;;;23.45;10.32;;;-3.50;99.90;;;;;;4954905;28;20115;-65
2023/02/08 03:59:32;;;;;;;22.85;10.35;;;-3.50;99.90;;;;;;4955530;28;20029;-65
2023/02/08 04:02:01;;;;;;;25.90;11.18;;;-3.50;99.90;;;;;;4957541;28;20042;-66
2023/02/08 04:04:32;;;;;;;21.77;11.40;;;-3.40;99.90;;;;;;4953029;28;20064;-69
2023/02/08 04:06:59;;;;;;;26.00;12.20;;;-3.30;99.90;;;;;;4955403;28;20674;-65
2023/02/08 04:09:24;;;;;;;22.30;11.13;;;-3.20;99.90;;;;;;4955967;28;20952;-67
2023/02/08 04:11:50;;;;;;;26.47;11.20;;;-3.20;99.90;;;;;;4955717;28;20029;-69
2023/02/08 04:14:16;;;;;;;22.30;9.95;;;-3.20;99.90;;;;;;4952780;28;20024;-67
2023/02/08 04:16:42;;;;;;;21.13;10.30;;;-3.30;99.90;;;;;;4956008;28;20182;-66
2023/02/08 04:19:07;;;;;;;24.80;10.10;;;-3.30;99.90;;;;;;4955744;28;20051;-65
2023/02/08 04:21:33;;;;;;;19.23;9.77;;;-3.40;99.90;;;;;;4956166;28;20032;-71
2023/02/08 04:23:59;;;;;;;20.03;9.73;;;-3.40;99.90;;;;;;4956071;28;20889;-66
2023/02/08 04:26:26;;;;;;;20.38;10.35;;;-3.40;99.90;;;;;;4958652;28;20297;-67
2023/02/08 04:28:51;;;;;;;22.95;9.38;;;-3.50;99.90;;;;;;4961064;28;20079;-66
2023/02/08 04:31:17;;;;;;;21.20;10.50;;;-3.60;99.90;;;;;;4960795;28;21065;-66
2023/02/08 04:33:43;;;;;;;17.83;7.23;;;-3.60;99.90;;;;;;4961125;28;20523;-70
2023/02/08 04:36:08;;;;;;;15.90;8.17;;;-3.60;99.90;;;;;;4958613;28;20040;-65
2023/02/08 04:38:36;;;;;;;20.13;10.07;;;-3.70;99.90;;;;;;4958678;28;20029;-73
2023/02/08 04:41:01;;;;;;;22.17;11.02;;;-3.70;99.90;;;;;;4957327;28;20129;-66
2023/02/08 04:43:27;;;;;;;16.17;8.40;;;-3.70;99.90;;;;;;4956253;28;20102;-66
2023/02/08 04:45:54;;;;;;;23.47;11.20;;;-3.60;99.90;;;;;;4959318;28;20036;-66
2023/02/08 04:48:20;;;;;;;22.98;10.63;;;-3.60;99.90;;;;;;4958378;28;20036;-66
2023/02/08 04:50:46;;;;;;;23.83;11.55;;;-3.50;99.90;;;;;;4958750;28;20024;-66
2023/02/08 04:53:11;;;;;;;20.73;8.73;;;-3.40;99.90;;;;;;4957638;28;20048;-67
2023/02/08 04:55:37;;;;;;;21.13;11.30;;;-3.30;99.90;;;;;;4958724;28;20280;-66
2023/02/08 04:58:03;;;;;;;34.03;11.17;;;-3.20;99.90;;;;;;4958108;28;20025;-66
2023/02/08 05:00:29;;;;;;;25.88;11.00;;;-3.10;99.90;;;;;;4959495;28;20430;-66
2023/02/08 05:02:57;;;;;;;21.27;10.70;;;-3.10;99.90;;;;;;4959657;28;20789;-67
2023/02/08 05:05:24;;;;;;;28.08;12.20;;;-3.10;99.90;;;;;;4956861;28;21634;-69
2023/02/08 05:07:50;;;;;;;29.08;11.57;;;-3.10;99.90;;;;;;4937738;28;20040;-73
2023/02/08 05:10:16;;;;;;;20.52;9.95;;;-3.10;99.90;;;;;;4959163;28;20634;-66
2023/02/08 05:12:42;;;;;;;22.67;10.80;;;-3.10;99.90;;;;;;4959523;28;20647;-66
2023/02/08 05:15:08;;;;;;;18.40;9.50;;;-3.20;99.90;;;;;;4959317;28;20272;-66
2023/02/08 05:17:33;;;;;;;26.90;10.95;;;-3.30;99.90;;;;;;4960102;28;20427;-66
2023/02/08 05:19:59;;;;;;;23.00;10.30;;;-3.40;99.90;;;;;;4958486;28;20040;-65
2023/02/08 05:22:25;;;;;;;22.37;9.90;;;-3.40;99.90;;;;;;4960675;28;20988;-65
2023/02/08 05:24:51;;;;;;;21.63;9.93;;;-3.40;99.90;;;;;;4935942;28;20740;-66
2023/02/08 05:27:16;;;;;;;16.90;7.43;;;-3.50;99.90;;;;;;4937565;28;24039;-66
2023/02/08 05:29:42;;;;;;;18.90;8.60;;;-3.50;99.90;;;;;;4939253;28;20087;-71
2023/02/08 05:32:08;;;;;;;27.90;11.87;;;-3.50;99.90;;;;;;4938630;28;20131;-67
2023/02/08 05:34:33;;;;;;;23.70;11.37;;;-3.40;99.90;;;;;;4941074;28;21534;-65
2023/02/08 05:36:59;;;;;;;22.83;10.70;;;-3.40;99.90;;;;;;4937918;28;20183;-65
2023/02/08 05:39:25;;;;;;;23.43;11.37;;;-3.30;99.90;;;;;;4939360;28;20028;-72
2023/02/08 05:41:50;;;;;;;26.40;10.93;;;-3.30;99.90;;;;;;4938384;28;20039;-66
2023/02/08 05:44:16;;;;;;;20.77;10.80;;;-3.10;99.90;;;;;;4936806;28;20036;-65
2023/02/08 05:46:42;;;;;;;27.87;8.83;;;-3.10;99.90;;;;;;4934742;28;20154;-66
2023/02/08 05:49:07;;;;;;;27.53;10.93;;;-3.00;99.90;;;;;;4937503;28;20083;-65
2023/02/08 05:51:33;;;;;;;19.73;8.37;;;-2.90;99.90;;;;;;4937312;28;20030;-66
2023/02/08 05:53:59;;;;;;;25.13;11.23;;;-2.90;99.90;;;;;;4937495;28;20028;-67
2023/02/08 05:56:24;;;;;;;16.00;8.50;;;-2.90;99.90;;;;;;4937592;28;20113;-64
2023/02/08 05:58:50;;;;;;;19.73;8.63;;;-2.90;99.90;;;;;;4938788;28;20036;-72
2023/02/08 06:01:16;;;;;;;24.80;11.00;;;-2.90;99.90;;;;;;4938213;28;20850;-65
2023/02/08 06:03:41;;;;;;;24.13;10.67;;;-3.00;99.90;;;;;;4939400;28;20151;-72
2023/02/08 06:06:09;;;;;;;27.47;11.03;;;-3.00;99.90;;;;;;4941094;28;20033;-65
2023/02/08 06:08:36;;;;;;;22.38;9.70;;;-3.10;99.90;;;;;;4937462;28;20024;-68
2023/02/08 06:11:02;;;;;;;;;;;-3.10;99.90;;;;;;4941316;28;20332;-70
2023/02/08 06:13:28;;;;;;;19.95;9.07;;;-3.10;99.90;;;;;;4941289;28;19920;-65
2023/02/08 06:15:54;;;;;;;20.37;9.20;;;-3.20;99.90;;;;;;4939175;28;20029;-66
2023/02/08 06:18:20;;;;;;;24.52;9.63;;;-3.20;99.90;;;;;;4939208;28;20723;-72
2023/02/08 06:20:46;;;;;;;15.83;8.10;;;-3.20;99.90;;;;;;4939509;28;20041;-66
2023/02/08 06:23:11;;;;;;;15.67;8.13;;;-3.20;99.90;;;;;;4941372;28;20450;-66
2023/02/08 06:25:37;;;;;;;21.83;9.67;;;-3.20;99.90;;;;;;4957495;28;20147;-65
2023/02/08 06:28:04;;;;;;;23.58;10.43;;;-3.20;99.90;;;;;;4941271;28;20071;-65
2023/02/08 06:30:30;;;;;;;24.38;11.07;;;-3.30;99.90;;;;;;4957598;28;20121;-68
2023/02/08 06:32:55;;;;;;;17.85;8.13;;;-3.20;99.90;;;;;;4958368;28;20209;-69
2023/02/08 06:35:21;;;;;;;16.87;8.30;;;-3.10;99.90;;;;;;4957482;28;20040;-66
2023/02/08 06:37:47;;;;;;;21.50;9.97;;;-3.10;99.90;;;;;;4957021;28;20068;-72
2023/02/08 06:40:12;;;;;;;28.60;12.07;;;-3.10;99.90;;;;;;4958612;28;20618;-66
2023/02/08 06:42:38;;;;;;;21.47;10.20;;;-3.00;99.90;;;;;;4956417;28;20055;-71
2023/02/08 06:45:07;;;;;;;26.27;11.80;;;-3.00;99.90;;;;;;4957694;28;20386;-66
2023/02/08 06:47:32;;;;;;;19.23;9.60;;;-3.00;99.90;;;;;;4956698;28;20071;-67
2023/02/08 06:49:58;;;;;;;24.00;10.10;;;-2.90;99.90;;;;;;4956534;28;20061;-66
2023/02/08 06:52:23;;;;;;;24.90;10.77;;;-2.90;99.90;;;;;;4958882;28;24420;-66
2023/02/08 06:54:49;;;;;;;24.37;10.10;;;-2.90;99.90;;;;;;4958677;28;20052;-66
2023/02/08 06:57:15;;;;;;;23.97;11.43;;;-2.80;99.90;;;;;;4959131;28;20319;-65
2023/02/08 06:59:41;;;;;;;26.03;10.60;;;-2.90;99.90;;;;;;4958244;28;20075;-65
2023/02/08 07:02:13;;;;;;;19.65;8.43;;;-2.90;99.90;;;;;;4957536;28;20025;-66
2023/02/08 07:04:39;;;;;;;26.80;10.18;;;-2.90;99.90;;;;;;4958816;28;20033;-68
2023/02/08 07:07:05;;;;;;;21.90;10.10;;;-2.90;99.90;;;;;;4956158;28;20126;-69
2023/02/08 07:09:33;;;;;;;19.48;10.10;;;-2.90;99.90;;;;;;4956686;28;20029;-66
2023/02/08 07:12:03;;;;;;;19.88;9.95;;;-2.90;99.90;;;;;;4954390;28;20025;-71
2023/02/08 07:14:37;;;;;;;22.75;10.65;;;-2.90;99.90;;;;;;4958582;28;20104;-66
2023/02/08 07:17:03;;;;;;;25.40;10.73;;;-2.80;99.90;;;;;;4955832;28;23247;-65
2023/02/08 07:19:29;;;;;;;14.48;6.57;;;-2.80;99.90;;;;;;4937486;28;20059;-66
2023/02/08 07:21:55;;;;;;;22.83;11.20;;;-2.80;99.90;;;;;;4950644;28;20880;-72
2023/02/08 07:24:21;;;;;;;25.17;10.25;;;-2.80;99.90;;;;;;5051915;28;20434;-72
2023/02/08 07:26:47;;;;;;;19.57;9.40;;;-2.70;99.90;;;;;;5053848;28;20047;-72
2023/02/08 07:29:12;;;;;;;19.17;10.23;;;-2.70;99.90;;;;;;5036208;28;20067;-72
2023/02/08 07:31:38;;;;;;;17.27;7.40;;;-2.70;99.90;;;;;;5053910;28;20366;-64
2023/02/08 07:34:04;;;;;;;23.17;9.70;;;-2.70;99.90;;;;;;5054335;28;20025;-66
2023/02/08 07:36:29;;;;;;;23.30;9.47;;;-2.70;99.90;;;;;;5054313;28;20033;-72
2023/02/08 07:38:55;;;;;;;20.37;8.70;;;-2.60;99.90;;;;;;5048103;28;20056;-73
2023/02/08 07:41:21;;;;;;;28.27;11.90;;;-2.50;99.90;;;;;;5048224;28;20375;-66
2023/02/08 07:43:46;;;;;;;15.83;8.73;;;-2.30;99.90;;;;;;5050328;28;20041;-72
2023/02/08 07:46:19;;;;;;;20.47;10.07;;;-2.20;99.90;;;;;;5052131;28;20358;-72
2023/02/08 07:48:45;;;;;;;26.15;10.45;;;-2.10;99.90;;;;;;5036352;28;20087;-66
2023/02/08 07:51:11;;;;;;;22.67;11.18;;;-2.00;99.90;;;;;;5044991;28;20117;-73
2023/02/08 07:53:37;;;;;;;34.63;10.80;;;-1.90;99.90;;;;;;5034672;28;20029;-73
2023/02/08 07:56:04;;;;;;;17.02;8.18;;;-1.80;99.90;;;;;;5048690;28;20048;-72
2023/02/08 07:58:29;;;;;;;21.88;9.95;;;-1.60;99.90;;;;;;5047322;28;20040;-65
2023/02/08 08:00:55;;;;;;;17.20;8.23;;;-1.60;99.90;;;;;;5051226;28;20041;-65
2023/02/08 08:03:21;;;;;;;22.27;10.80;;;-1.30;99.90;;;;;;5055797;28;20029;-65
2023/02/08 08:05:48;;;;;;;24.60;10.60;;;-1.10;99.90;;;;;;5043560;28;20104;-72
2023/02/08 08:08:13;;;;;;;21.65;9.75;;;-1.30;99.90;;;;;;5033562;28;20279;-66
2023/02/08 08:10:40;;;;;;;25.40;9.97;;;-1.40;99.90;;;;;;5045460;28;20116;-72
2023/02/08 08:13:05;;;;;;;16.85;8.00;;;-1.50;99.90;;;;;;5053902;28;20086;-72
2023/02/08 08:15:31;;;;;;;22.13;10.23;;;-1.50;99.90;;;;;;5052219;28;20403;-73
2023/02/08 08:17:56;;;;;;;25.27;10.23;;;-1.50;99.90;;;;;;5053476;28;20052;-72
2023/02/08 08:20:22;;;;;;;25.63;10.23;;;-1.40;99.90;;;;;;5055475;28;20102;-66
2023/02/08 08:22:48;;;;;;;19.87;9.33;;;-1.40;99.90;;;;;;5053267;28;20021;-72
2023/02/08 08:25:14;;;;;;;27.77;11.40;;;-1.40;99.90;;;;;;5054816;28;20382;-71
2023/02/08 08:27:40;;;;;;;23.97;11.87;;;-1.30;99.90;;;;;;4996830;28;20048;-73
2023/02/08 08:30:07;;;;;;;26.93;12.87;;;-1.30;99.90;;;;;;4945209;28;23719;-66
2023/02/08 08:32:32;;;;;;;23.38;13.70;;;-1.30;99.90;;;;;;4944190;28;20025;-67
2023/02/08 08:34:58;;;;;;;20.07;10.90;;;-1.20;99.90;;;;;;4944629;28;20419;-65
2023/02/08 08:37:24;;;;;;;24.97;11.17;;;-1.20;99.90;;;;;;4943984;28;20123;-68
2023/02/08 08:39:50;;;;;;;23.40;12.60;;;-1.10;99.90;;;;;;4946725;28;20021;-71
2023/02/08 08:42:15;;;;;;;27.73;12.83;;;-1.10;99.90;;;;;;4946432;28;20024;-65
2023/02/08 08:44:41;;;;;;;19.63;10.33;;;-1.10;99.90;;;;;;4944851;28;20028;-65
2023/02/08 08:47:08;;;;;;;26.27;14.43;;;-1.00;99.90;;;;;;4942251;28;20072;-64
2023/02/08 08:49:34;;;;;;;;;;;-1.00;99.90;;;;;;4947517;28;23793;-65
2023/02/08 08:51:59;;;;;;;35.87;18.67;;;-0.90;99.90;;;;;;4945047;28;20633;-65
2023/02/08 08:54:25;;;;;;;31.43;14.67;;;-0.80;99.90;;;;;;4940038;28;20031;-69
2023/02/08 08:56:51;;;;;;;30.93;13.83;;;-0.70;99.90;;;;;;4939731;28;20029;-65
2023/02/08 08:59:17;;;;;;;20.13;10.30;;;-0.70;99.90;;;;;;4923678;28;20093;-64
2023/02/08 09:01:42;;;;;;;28.80;12.40;;;-0.60;99.90;;;;;;4953917;28;20420;-73
2023/02/08 09:04:09;;;;;;;23.13;12.13;;;-0.60;99.90;;;;;;5055630;28;20029;-73
2023/02/08 09:06:35;;;;;;;31.58;12.57;;;-0.50;99.90;;;;;;5054978;28;20526;-68
2023/02/08 09:09:02;;;;;;;27.98;12.98;;;-0.40;99.90;;;;;;5054857;28;20406;-65
2023/02/08 09:11:28;;;;;;;29.30;18.70;;;-0.30;99.90;;;;;;5051765;28;20096;-73
2023/02/08 09:13:55;;;;;;;23.50;14.90;;;-0.30;99.90;;;;;;5052716;28;20104;-74
2023/02/08 09:16:22;;;;;;;23.50;11.40;;;-0.10;99.90;;;;;;5036859;28;20037;-66
2023/02/08 09:18:48;;;;;;;34.35;18.23;;;-0.10;99.90;;;;;;5047135;28;20487;-72
2023/02/08 09:21:16;;;;;;;23.05;13.70;;;-0.10;99.90;;;;;;5056555;28;20021;-72
2023/02/08 09:23:42;;;;;;;24.05;10.73;;;0.00;99.90;;;;;;5039533;28;20029;-71
2023/02/08 09:26:10;;;;;;;20.38;9.93;;;0.00;99.90;;;;;;4956966;28;20040;-66
2023/02/08 09:28:37;;;;;;;25.33;10.88;;;0.10;99.90;;;;;;4943154;28;20017;-64
2023/02/08 09:31:17;;;;;;;32.33;12.30;;;0.20;99.90;;;;;;4944108;28;20111;-72
2023/02/08 09:33:42;;;;;;;29.77;13.07;;;0.30;99.90;;;;;;4943609;28;20043;-65
2023/02/08 09:36:09;;;;;;;26.93;13.57;;;0.40;99.90;;;;;;4944323;28;20028;-71
2023/02/08 09:38:35;;;;;;;36.22;15.95;;;0.50;99.90;;;;;;4945805;28;20370;-73
2023/02/08 09:41:26;;;;;;;20.10;10.98;;;0.50;99.90;;;;;;4945981;28;20128;-66
2023/02/08 09:44:11;;;;;;;30.42;13.73;;;0.60;99.90;;;;;;4946991;28;20689;-66
2023/02/08 09:46:40;;;;;;;15.98;8.20;;;0.70;99.90;;;;;;4952853;28;20068;-66
2023/02/08 09:49:14;;;;;;;18.45;8.43;;;0.90;99.90;;;;;;4948066;28;20024;-65
2023/02/08 09:51:57;;;;;;;23.27;8.77;;;1.00;99.90;;;;;;4945345;28;20413;-65
2023/02/08 09:54:36;;;;;;;19.10;9.15;;;1.10;99.90;;;;;;4946738;28;20155;-65
2023/02/08 09:57:09;;;;;;;16.30;8.18;;;1.40;99.90;;;;;;4945983;28;20028;-67
2023/02/08 09:59:37;;;;;;;19.33;8.70;;;2.00;99.90;;;;;;4944537;28;20029;-65
2023/02/08 10:02:24;;;;;;;18.25;9.05;;;2.70;99.90;;;;;;4944697;28;20099;-65
2023/02/08 10:05:25;;;;;;;24.75;8.48;;;3.40;99.90;;;;;;4945216;28;20040;-64
2023/02/08 10:07:50;;;;;;;18.00;8.60;;;3.70;99.90;;;;;;4879926;28;20052;-65
2023/02/08 10:10:37;;;;;;;13.50;8.13;;;4.00;99.90;;;;;;4867220;28;20157;-72
2023/02/08 10:13:18;;;;;;;16.33;7.82;;;4.10;99.90;;;;;;4884054;28;20882;-65
2023/02/08 10:15:55;;;;;;;14.32;8.40;;;4.00;99.90;;;;;;4882781;28;20089;-65
2023/02/08 10:18:36;;;;;;;17.40;8.50;;;3.90;99.90;;;;;;4882908;28;20030;-66
2023/02/08 10:21:23;;;;;;;15.75;8.32;;;3.90;99.90;;;;;;4883002;28;20807;-65
2023/02/08 10:24:02;;;;;;;21.10;8.45;;;4.00;99.90;;;;;;4882597;28;20046;-72
2023/02/08 10:26:41;;;;;;;18.13;8.30;;;3.90;99.90;;;;;;4866148;28;21649;-74
2023/02/08 10:29:25;;;;;;;16.73;8.02;;;3.80;99.90;;;;;;4881816;28;20062;-65
2023/02/08 10:32:34;;;;;;;14.27;7.57;;;3.80;99.90;;;;;;4883243;28;20125;-67
2023/02/08 10:35:10;;;;;;;17.95;8.13;;;3.80;99.90;;;;;;4880872;28;20100;-66
2023/02/08 10:37:39;;;;;;;16.43;8.23;;;3.70;99.90;;;;;;4881672;28;20072;-66
2023/02/08 10:40:30;;;;;;;17.38;9.05;;;3.70;99.90;;;;;;4882732;28;20069;-66
2023/02/08 10:42:59;;;;;;;15.50;7.95;;;3.80;99.90;;;;;;4880816;28;20181;-72
2023/02/08 10:45:35;;;;;;;18.55;8.13;;;3.80;99.90;;;;;;4940232;28;20032;-66
2023/02/08 10:48:30;;;;;;;15.52;7.97;;;3.90;99.90;;;;;;4945861;28;20427;-66
2023/02/08 10:50:56;;;;;;;12.85;6.53;;;4.00;99.90;;;;;;4944289;28;20017;-70
2023/02/08 10:53:22;;;;;;;17.93;7.97;;;4.10;99.90;;;;;;4942217;28;20032;-73
2023/02/08 10:55:49;;;;;;;14.47;7.70;;;4.20;99.90;;;;;;4927347;28;20128;-68
2023/02/08 10:58:22;;;;;;;18.25;7.68;;;4.30;99.90;;;;;;4947960;28;20028;-66
2023/02/08 11:00:50;;;;;;;15.88;7.32;;;4.40;99.90;;;;;;4943813;28;20029;-67
2023/02/08 11:03:25;;;;;;;16.55;7.43;;;4.40;99.90;;;;;;4977596;28;20033;-74
2023/02/08 11:05:51;;;;;;;12.73;6.40;;;4.50;99.90;;;;;;5051816;28;20322;-74
2023/02/08 11:08:21;;;;;;;16.42;7.78;;;4.50;99.90;;;;;;5031424;28;20099;-71
2023/02/08 11:11:03;;;;;;;12.35;6.75;;;4.60;99.90;;;;;;5053469;28;20029;-74
2023/02/08 11:13:42;;;;;;;11.82;6.93;;;4.50;99.90;;;;;;5053930;28;20118;-74
2023/02/08 11:16:26;;;;;;;14.93;7.68;;;4.60;99.90;;;;;;5033776;28;20467;-74
2023/02/08 11:19:00;;;;;;;16.13;7.47;;;4.70;99.90;;;;;;5050959;28;20131;-74
2023/02/08 11:21:33;;;;;;;13.55;7.10;;;4.80;99.90;;;;;;5051246;28;20362;-74
2023/02/08 11:24:20;;;;;;;16.27;7.70;;;4.80;99.90;;;;;;5038852;28;20086;-75
2023/02/08 11:26:47;;;;;;;13.13;6.38;;;4.90;99.90;;;;;;5052722;28;20453;-75
2023/02/08 11:29:14;;;;;;;;;;;5.00;99.90;;;;;;5038484;28;20028;-75
2023/02/08 11:32:03;;;;;;;15.27;6.15;;;5.10;99.90;;;;;;5052156;28;19912;-71
2023/02/08 11:34:38;;;;;;;13.77;6.32;;;5.30;99.90;;;;;;5052859;28;20028;-75
2023/02/08 11:37:15;;;;;;;10.85;5.38;;;5.40;99.90;;;;;;5047024;28;20067;-73
2023/02/08 11:40:00;;;;;;;15.05;6.80;;;5.50;99.90;;;;;;5031004;28;20431;-75
2023/02/08 11:42:45;;;;;;;15.75;6.60;;;5.60;99.90;;;;;;5049095;28;20353;-74
2023/02/08 11:45:24;;;;;;;9.70;6.32;;;5.70;99.90;;;;;;5031846;28;20037;-75
2023/02/08 11:47:51;;;;;;;10.02;5.53;;;5.80;99.90;;;;;;5028566;28;20029;-74
2023/02/08 11:50:35;;;;;;;11.50;6.20;;;6.00;99.90;;;;;;5028549;28;20052;-75
2023/02/08 11:53:22;;;;;;;10.63;5.57;;;6.10;99.90;;;;;;5047010;28;20057;-76
2023/02/08 11:56:05;;;;;;;9.07;5.30;;;6.30;99.90;;;;;;5045547;28;20040;-75
2023/02/08 11:58:31;;;;;;;9.45;6.30;;;6.30;99.90;;;;;;5043732;28;20113;-76
2023/02/08 12:01:14;;;;;;;12.73;6.18;;;6.40;99.90;;;;;;5052515;28;20043;-75
2023/02/08 12:03:41;;;;;;;11.68;5.63;;;6.60;99.90;;;;;;5027960;28;20435;-75
2023/02/08 12:06:28;;;;;;;12.60;6.18;;;6.60;99.90;;;;;;4966396;28;20086;-67
2023/02/08 12:09:35;;;;;;;10.57;5.35;;;6.70;99.90;;;;;;4947005;28;20021;-74
2023/02/08 12:12:25;;;;;;;10.75;5.25;;;6.80;99.90;;;;;;4946046;28;20032;-67
2023/02/08 12:15:11;;;;;;;9.45;5.65;;;6.80;99.90;;;;;;4946716;28;20905;-68
2023/02/08 12:18:22;;;;;;;11.55;5.40;;;6.90;99.90;;;;;;4953604;28;20600;-67
2023/02/08 12:20:56;;;;;;;9.15;5.20;;;6.90;99.90;;;;;;4946350;28;20650;-74
2023/02/08 12:23:54;;;;;;;8.50;5.03;;;7.00;99.90;;;;;;4945313;28;23601;-68
2023/02/08 12:26:56;;;;;;;7.38;5.18;;;7.00;99.90;;;;;;4911580;28;20071;-75
2023/02/08 12:29:41;;;;;;;7.38;4.75;;;7.00;99.90;;;;;;4915595;28;21007;-67
2023/02/08 12:32:18;;;;;;;8.68;5.22;;;7.20;99.90;;;;;;4929937;28;20024;-68
2023/02/08 12:34:44;;;;;;;7.78;4.97;;;7.30;99.90;;;;;;4918376;28;20029;-75
2023/02/08 12:40:49;;;;;;;8.02;4.63;;;7.50;99.90;;;;;;4915150;28;20064;-68
2023/02/08 12:43:46;;;;;;;8.27;4.93;;;7.50;99.90;;;;;;4915734;28;20041;-73
2023/02/08 12:46:14;;;;;;;10.07;5.40;;;7.50;99.90;;;;;;4921182;28;24077;-67
2023/02/08 12:48:56;;;;;;;8.95;5.00;;;7.50;99.90;;;;;;4920719;28;20683;-75
2023/02/08 12:51:33;;;;;;;11.70;4.55;;;7.50;99.90;;;;;;4919763;28;20036;-69
2023/02/08 12:54:36;;;;;;;7.45;4.45;;;7.60;99.90;;;;;;4922172;28;20025;-75
2023/02/08 12:57:05;;;;;;;9.10;4.50;;;7.60;99.90;;;;;;4829733;29;20043;-68
2023/02/08 12:59:46;;;;;;;10.75;4.57;;;7.70;99.90;;;;;;4832159;29;20036;-68
2023/02/08 13:02:46;;;;;;;7.97;4.60;;;7.70;99.90;;;;;;4832066;29;20028;-76
2023/02/08 13:05:19;;;;;;;8.68;4.38;;;7.70;99.90;;;;;;4830596;29;20027;-76
2023/02/08 13:07:48;;;;;;;8.50;4.18;;;7.80;99.90;;;;;;4815350;29;20509;-77